sensor_id;sensor_type;location;lat;lon;timestamp;pressure;altitude;pressure_sealevel;temperature;humidity
74372;BME280;62885;51.374;6.170;2023-09-19T00:01:54;100407.28;;;16.09;94.00
74372;BME280;62885;51.374;6.170;2023-09-19T00:04:22;100414.38;;;16.10;94.54
74372;BME280;62885;51.374;6.170;2023-09-19T00:06:54;100414.88;;;16.06;94.51
74372;BME280;62885;51.374;6.170;2023-09-19T00:09:19;100411.38;;;16.13;95.04
74372;BME280;62885;51.374;6.170;2023-09-19T00:11:45;100419.56;;;16.03;95.36
74372;BME280;62885;51.374;6.170;2023-09-19T00:14:12;100423.03;;;15.96;95.66
74372;BME280;62885;51.374;6.170;2023-09-19T00:16:39;100421.59;;;16.01;96.30
74372;BME280;62885;51.374;6.170;2023-09-19T00:19:06;100425.75;;;15.96;95.59
74372;BME280;62885;51.374;6.170;2023-09-19T00:21:34;100421.91;;;15.98;96.02
74372;BME280;62885;51.374;6.170;2023-09-19T00:24:01;100429.16;;;15.98;96.42
74372;BME280;62885;51.374;6.170;2023-09-19T00:26:26;100428.63;;;15.94;96.06
74372;BME280;62885;51.374;6.170;2023-09-19T00:28:55;100429.63;;;15.93;96.97
74372;BME280;62885;51.374;6.170;2023-09-19T00:31:22;100431.97;;;15.88;96.82
74372;BME280;62885;51.374;6.170;2023-09-19T00:33:48;100430.03;;;15.81;96.93
74372;BME280;62885;51.374;6.170;2023-09-19T00:36:14;100437.13;;;15.82;97.27
74372;BME280;62885;51.374;6.170;2023-09-19T00:38:39;100435.44;;;15.81;97.87
74372;BME280;62885;51.374;6.170;2023-09-19T00:41:04;100442.63;;;15.72;97.16
74372;BME280;62885;51.374;6.170;2023-09-19T00:43:30;100439.47;;;15.77;97.34
74372;BME280;62885;51.374;6.170;2023-09-19T00:45:59;100440.47;;;15.76;98.19
74372;BME280;62885;51.374;6.170;2023-09-19T00:48:26;100437.53;;;15.69;97.84
74372;BME280;62885;51.374;6.170;2023-09-19T00:50:54;100444.63;;;15.70;98.02
74372;BME280;62885;51.374;6.170;2023-09-19T00:53:23;100452.81;;;15.60;97.60
74372;BME280;62885;51.374;6.170;2023-09-19T00:55:51;100453.13;;;15.57;97.28
74372;BME280;62885;51.374;6.170;2023-09-19T00:58:18;100453.84;;;15.50;98.50
74372;BME280;62885;51.374;6.170;2023-09-19T01:00:44;100453.25;;;15.56;97.89
74372;BME280;62885;51.374;6.170;2023-09-19T01:03:10;100465.66;;;15.49;97.36
74372;BME280;62885;51.374;6.170;2023-09-19T01:05:36;100462.78;;;15.50;98.49
74372;BME280;62885;51.374;6.170;2023-09-19T01:08:01;100464.13;;;15.46;97.18
74372;BME280;62885;51.374;6.170;2023-09-19T01:10:27;100470.13;;;15.40;97.33
74372;BME280;62885;51.374;6.170;2023-09-19T01:13:05;100479.31;;;15.47;97.79
74372;BME280;62885;51.374;6.170;2023-09-19T01:29:26;100496.84;;;15.34;96.89
74372;BME280;62885;51.374;6.170;2023-09-19T01:32:02;100496.16;;;15.32;96.98
74372;BME280;62885;51.374;6.170;2023-09-19T01:34:54;100491.78;;;15.31;96.70
74372;BME280;62885;51.374;6.170;2023-09-19T01:37:22;100492.47;;;15.33;97.38
74372;BME280;62885;51.374;6.170;2023-09-19T01:40:04;100487.25;;;15.31;96.08
74372;BME280;62885;51.374;6.170;2023-09-19T01:43:06;100502.72;;;15.29;96.45
74372;BME280;62885;51.374;6.170;2023-09-19T01:45:51;100497.19;;;15.31;95.74
74372;BME280;62885;51.374;6.170;2023-09-19T01:48:36;100494.53;;;15.21;96.50
74372;BME280;62885;51.374;6.170;2023-09-19T01:51:08;100494.13;;;15.16;96.83
74372;BME280;62885;51.374;6.170;2023-09-19T01:53:44;100500.63;;;15.23;96.38
74372;BME280;62885;51.374;6.170;2023-09-19T01:56:22;100498.06;;;15.21;96.59
74372;BME280;62885;51.374;6.170;2023-09-19T01:58:53;100508.59;;;15.42;97.58
74372;BME280;62885;51.374;6.170;2023-09-19T02:01:22;100503.00;;;15.26;96.51
74372;BME280;62885;51.374;6.170;2023-09-19T02:03:50;100507.16;;;15.20;97.68
74372;BME280;62885;51.374;6.170;2023-09-19T02:06:16;100508.31;;;15.18;97.46
74372;BME280;62885;51.374;6.170;2023-09-19T02:08:42;100504.91;;;15.16;97.20
74372;BME280;62885;51.374;6.170;2023-09-19T02:11:08;100512.75;;;15.09;96.98
74372;BME280;62885;51.374;6.170;2023-09-19T02:13:33;100518.00;;;15.11;96.64
74372;BME280;62885;51.374;6.170;2023-09-19T02:15:59;100515.47;;;15.09;96.76
74372;BME280;62885;51.374;6.170;2023-09-19T02:18:25;100517.47;;;15.07;96.48
74372;BME280;62885;51.374;6.170;2023-09-19T02:20:53;100516.44;;;15.08;95.08
74372;BME280;62885;51.374;6.170;2023-09-19T02:23:19;100525.56;;;15.07;94.80
74372;BME280;62885;51.374;6.170;2023-09-19T02:25:52;100527.09;;;15.10;94.61
74372;BME280;62885;51.374;6.170;2023-09-19T02:28:17;100529.94;;;15.08;94.38
74372;BME280;62885;51.374;6.170;2023-09-19T02:30:43;100528.25;;;15.07;93.68
74372;BME280;62885;51.374;6.170;2023-09-19T02:33:08;100532.03;;;15.14;93.33
74372;BME280;62885;51.374;6.170;2023-09-19T02:35:33;100535.19;;;15.10;92.46
74372;BME280;62885;51.374;6.170;2023-09-19T02:38:01;100532.28;;;15.21;90.97
74372;BME280;62885;51.374;6.170;2023-09-19T02:40:28;100534.59;;;15.16;91.84
74372;BME280;62885;51.374;6.170;2023-09-19T02:42:55;100534.34;;;15.09;92.18
74372;BME280;62885;51.374;6.170;2023-09-19T02:45:20;100537.88;;;15.10;92.35
74372;BME280;62885;51.374;6.170;2023-09-19T02:47:47;100536.94;;;15.01;92.42
74372;BME280;62885;51.374;6.170;2023-09-19T02:50:14;100539.13;;;15.15;93.35
74372;BME280;62885;51.374;6.170;2023-09-19T02:52:42;100536.50;;;15.06;91.98
74372;BME280;62885;51.374;6.170;2023-09-19T02:55:11;100543.59;;;14.97;91.94
74372;BME280;62885;51.374;6.170;2023-09-19T02:57:39;100543.78;;;14.96;92.53
74372;BME280;62885;51.374;6.170;2023-09-19T03:00:08;100539.94;;;14.98;92.21
74372;BME280;62885;51.374;6.170;2023-09-19T03:02:36;100544.97;;;15.11;92.64
74372;BME280;62885;51.374;6.170;2023-09-19T03:05:01;100543.06;;;14.94;91.87
74372;BME280;62885;51.374;6.170;2023-09-19T03:07:28;100542.66;;;14.89;93.03
74372;BME280;62885;51.374;6.170;2023-09-19T03:09:53;100538.00;;;14.81;92.95
74372;BME280;62885;51.374;6.170;2023-09-19T03:12:20;100538.59;;;14.85;93.28
74372;BME280;62885;51.374;6.170;2023-09-19T03:14:45;100547.81;;;14.82;92.82
74372;BME280;62885;51.374;6.170;2023-09-19T03:17:11;100543.25;;;14.83;93.91
74372;BME280;62885;51.374;6.170;2023-09-19T03:19:36;100548.13;;;14.79;93.37
74372;BME280;62885;51.374;6.170;2023-09-19T03:22:04;100548.38;;;14.76;93.03
74372;BME280;62885;51.374;6.170;2023-09-19T03:24:29;100557.47;;;14.75;94.03
74372;BME280;62885;51.374;6.170;2023-09-19T03:26:56;100550.34;;;14.84;94.02
74372;BME280;62885;51.374;6.170;2023-09-19T03:29:22;100559.72;;;14.79;93.77
74372;BME280;62885;51.374;6.170;2023-09-19T03:31:48;100556.91;;;14.71;93.98
74372;BME280;62885;51.374;6.170;2023-09-19T03:34:13;100559.47;;;14.73;93.28
74372;BME280;62885;51.374;6.170;2023-09-19T03:36:39;100560.31;;;14.73;93.60
74372;BME280;62885;51.374;6.170;2023-09-19T03:39:05;100555.88;;;14.82;93.70
74372;BME280;62885;51.374;6.170;2023-09-19T03:41:31;100552.94;;;14.75;93.41
74372;BME280;62885;51.374;6.170;2023-09-19T03:43:58;100550.81;;;14.79;94.73
74372;BME280;62885;51.374;6.170;2023-09-19T03:46:23;100551.41;;;14.73;95.39
74372;BME280;62885;51.374;6.170;2023-09-19T03:48:50;100549.94;;;14.78;95.67
74372;BME280;62885;51.374;6.170;2023-09-19T03:51:15;100549.09;;;14.78;95.39
74372;BME280;62885;51.374;6.170;2023-09-19T03:53:43;100542.94;;;14.86;95.16
74372;BME280;62885;51.374;6.170;2023-09-19T03:56:08;100542.41;;;14.82;94.26
74372;BME280;62885;51.374;6.170;2023-09-19T03:58:34;100539.31;;;14.77;94.34
74372;BME280;62885;51.374;6.170;2023-09-19T04:01:04;100535.44;;;14.79;94.40
74372;BME280;62885;51.374;6.170;2023-09-19T04:03:29;100537.41;;;14.87;94.24
74372;BME280;62885;51.374;6.170;2023-09-19T04:06:16;100535.31;;;14.81;94.55
74372;BME280;62885;51.374;6.170;2023-09-19T04:08:42;100531.63;;;14.82;95.54
74372;BME280;62885;51.374;6.170;2023-09-19T04:11:08;100529.44;;;14.95;95.37
74372;BME280;62885;51.374;6.170;2023-09-19T04:13:34;100539.06;;;14.98;95.11
74372;BME280;62885;51.374;6.170;2023-09-19T04:15:59;100530.03;;;14.89;95.11
74372;BME280;62885;51.374;6.170;2023-09-19T04:18:25;100531.56;;;14.92;95.22
74372;BME280;62885;51.374;6.170;2023-09-19T04:20:51;100536.81;;;14.93;95.42
74372;BME280;62885;51.374;6.170;2023-09-19T04:23:17;100537.72;;;14.84;96.17
74372;BME280;62885;51.374;6.170;2023-09-19T04:25:43;100536.88;;;14.84;96.52
74372;BME280;62885;51.374;6.170;2023-09-19T04:28:08;100546.50;;;14.86;96.56
74372;BME280;62885;51.374;6.170;2023-09-19T04:30:36;100539.41;;;14.85;96.18
74372;BME280;62885;51.374;6.170;2023-09-19T04:33:02;100541.69;;;14.80;96.35
74372;BME280;62885;51.374;6.170;2023-09-19T04:35:28;100541.28;;;14.85;97.17
74372;BME280;62885;51.374;6.170;2023-09-19T04:37:56;100537.81;;;14.92;96.17
74372;BME280;62885;51.374;6.170;2023-09-19T04:40:22;100549.31;;;14.94;95.21
74372;BME280;62885;51.374;6.170;2023-09-19T04:42:54;100552.47;;;14.90;94.69
74372;BME280;62885;51.374;6.170;2023-09-19T04:45:26;100556.34;;;15.05;94.48
74372;BME280;62885;51.374;6.170;2023-09-19T04:47:52;100558.94;;;14.97;94.50
74372;BME280;62885;51.374;6.170;2023-09-19T04:50:18;100561.75;;;15.05;94.51
74372;BME280;62885;51.374;6.170;2023-09-19T04:52:44;100568.78;;;14.88;94.70
74372;BME280;62885;51.374;6.170;2023-09-19T04:55:12;100579.38;;;14.99;94.69
74372;BME280;62885;51.374;6.170;2023-09-19T04:57:51;100588.19;;;14.92;94.96
74372;BME280;62885;51.374;6.170;2023-09-19T05:00:21;100589.34;;;14.89;95.76
74372;BME280;62885;51.374;6.170;2023-09-19T05:02:52;100601.13;;;14.88;96.24
74372;BME280;62885;51.374;6.170;2023-09-19T05:05:19;100610.06;;;14.89;96.18
74372;BME280;62885;51.374;6.170;2023-09-19T05:07:45;100605.63;;;14.97;95.92
74372;BME280;62885;51.374;6.170;2023-09-19T05:10:11;100609.03;;;14.99;95.13
74372;BME280;62885;51.374;6.170;2023-09-19T05:12:38;100616.13;;;15.00;95.45
74372;BME280;62885;51.374;6.170;2023-09-19T05:15:06;100620.81;;;14.98;95.44
74372;BME280;62885;51.374;6.170;2023-09-19T05:17:33;100621.94;;;15.05;94.43
74372;BME280;62885;51.374;6.170;2023-09-19T05:19:59;100622.47;;;15.09;95.01
74372;BME280;62885;51.374;6.170;2023-09-19T05:22:36;100626.50;;;14.95;93.58
74372;BME280;62885;51.374;6.170;2023-09-19T05:25:05;100635.59;;;14.94;93.98
74372;BME280;62885;51.374;6.170;2023-09-19T05:27:31;100633.75;;;14.95;94.74
74372;BME280;62885;51.374;6.170;2023-09-19T05:29:56;100631.72;;;14.97;94.65
74372;BME280;62885;51.374;6.170;2023-09-19T05:32:21;100641.25;;;15.01;94.04
74372;BME280;62885;51.374;6.170;2023-09-19T05:34:47;100639.69;;;14.98;94.25
74372;BME280;62885;51.374;6.170;2023-09-19T05:37:13;100640.94;;;15.04;93.31
74372;BME280;62885;51.374;6.170;2023-09-19T05:39:38;100638.41;;;15.02;93.35
74372;BME280;62885;51.374;6.170;2023-09-19T05:42:04;100641.78;;;15.04;93.78
74372;BME280;62885;51.374;6.170;2023-09-19T05:44:29;100648.00;;;15.14;93.40
74372;BME280;62885;51.374;6.170;2023-09-19T05:46:55;100641.19;;;15.10;93.38
74372;BME280;62885;51.374;6.170;2023-09-19T05:49:22;100645.03;;;15.17;93.14
74372;BME280;62885;51.374;6.170;2023-09-19T05:51:47;100647.84;;;15.16;92.01
74372;BME280;62885;51.374;6.170;2023-09-19T05:54:12;100653.69;;;15.11;92.39
74372;BME280;62885;51.374;6.170;2023-09-19T05:56:38;100649.28;;;15.10;92.58
74372;BME280;62885;51.374;6.170;2023-09-19T05:59:03;100650.16;;;15.11;93.25
74372;BME280;62885;51.374;6.170;2023-09-19T06:01:30;100641.34;;;15.09;94.05
74372;BME280;62885;51.374;6.170;2023-09-19T06:03:58;100644.31;;;15.15;93.86
74372;BME280;62885;51.374;6.170;2023-09-19T06:06:25;100642.84;;;15.21;93.18
74372;BME280;62885;51.374;6.170;2023-09-19T06:08:50;100652.00;;;15.10;93.72
74372;BME280;62885;51.374;6.170;2023-09-19T06:11:15;100649.75;;;15.06;94.13
74372;BME280;62885;51.374;6.170;2023-09-19T06:13:41;100641.19;;;15.10;94.50
74372;BME280;62885;51.374;6.170;2023-09-19T06:16:06;100646.56;;;15.20;94.22
74372;BME280;62885;51.374;6.170;2023-09-19T06:18:32;100638.38;;;15.12;94.94
74372;BME280;62885;51.374;6.170;2023-09-19T06:20:59;100645.22;;;15.34;94.71
74372;BME280;62885;51.374;6.170;2023-09-19T06:23:24;100645.97;;;15.26;94.17
74372;BME280;62885;51.374;6.170;2023-09-19T06:25:52;100645.53;;;15.31;93.58
74372;BME280;62885;51.374;6.170;2023-09-19T06:28:18;100639.91;;;15.14;94.68
74372;BME280;62885;51.374;6.170;2023-09-19T06:30:49;100642.00;;;15.20;95.45
74372;BME280;62885;51.374;6.170;2023-09-19T06:33:14;100647.66;;;15.27;95.04
74372;BME280;62885;51.374;6.170;2023-09-19T06:35:42;100647.13;;;15.24;95.09
74372;BME280;62885;51.374;6.170;2023-09-19T06:38:09;100653.91;;;15.28;95.13
74372;BME280;62885;51.374;6.170;2023-09-19T06:40:34;100654.50;;;15.31;96.28
74372;BME280;62885;51.374;6.170;2023-09-19T06:43:00;100650.47;;;15.35;95.54
74372;BME280;62885;51.374;6.170;2023-09-19T06:45:27;100652.88;;;15.38;96.02
74372;BME280;62885;51.374;6.170;2023-09-19T06:47:52;100652.97;;;15.56;95.46
74372;BME280;62885;51.374;6.170;2023-09-19T06:50:22;100657.06;;;15.50;95.82
74372;BME280;62885;51.374;6.170;2023-09-19T06:52:53;100659.66;;;15.52;95.68
74372;BME280;62885;51.374;6.170;2023-09-19T06:55:20;100674.13;;;15.51;95.55
74372;BME280;62885;51.374;6.170;2023-09-19T06:57:46;100663.97;;;15.72;95.42
74372;BME280;62885;51.374;6.170;2023-09-19T07:00:13;100666.88;;;15.51;95.13
74372;BME280;62885;51.374;6.170;2023-09-19T07:05:22;100661.22;;;15.54;95.57
74372;BME280;62885;51.374;6.170;2023-09-19T07:07:48;100676.13;;;15.58;94.02
74372;BME280;62885;51.374;6.170;2023-09-19T07:10:13;100686.78;;;15.60;95.14
74372;BME280;62885;51.374;6.170;2023-09-19T07:12:39;100693.84;;;15.61;95.94
74372;BME280;62885;51.374;6.170;2023-09-19T07:15:06;100689.00;;;15.65;95.84
74372;BME280;62885;51.374;6.170;2023-09-19T07:17:31;100691.31;;;15.59;96.07
74372;BME280;62885;51.374;6.170;2023-09-19T07:19:58;100689.06;;;15.55;94.38
74372;BME280;62885;51.374;6.170;2023-09-19T07:22:24;100686.06;;;15.58;94.44
74372;BME280;62885;51.374;6.170;2023-09-19T07:24:49;100688.88;;;15.66;94.92
74372;BME280;62885;51.374;6.170;2023-09-19T07:27:14;100686.84;;;15.68;94.24
74372;BME280;62885;51.374;6.170;2023-09-19T07:29:39;100689.88;;;15.55;94.09
74372;BME280;62885;51.374;6.170;2023-09-19T07:32:05;100678.50;;;15.61;93.85
74372;BME280;62885;51.374;6.170;2023-09-19T07:34:31;100688.88;;;15.66;94.56
74372;BME280;62885;51.374;6.170;2023-09-19T07:36:57;100681.63;;;15.67;94.66
74372;BME280;62885;51.374;6.170;2023-09-19T07:39:22;100686.97;;;15.76;94.28
74372;BME280;62885;51.374;6.170;2023-09-19T07:41:47;100684.97;;;15.78;93.23
74372;BME280;62885;51.374;6.170;2023-09-19T07:44:14;100687.63;;;16.06;92.98
74372;BME280;62885;51.374;6.170;2023-09-19T07:46:39;100687.78;;;16.04;91.43
74372;BME280;62885;51.374;6.170;2023-09-19T07:49:04;100688.78;;;16.03;92.61
74372;BME280;62885;51.374;6.170;2023-09-19T07:51:30;100696.69;;;16.32;91.48
74372;BME280;62885;51.374;6.170;2023-09-19T07:53:56;100683.25;;;16.22;91.48
74372;BME280;62885;51.374;6.170;2023-09-19T07:56:21;100688.44;;;16.33;90.93
74372;BME280;62885;51.374;6.170;2023-09-19T07:58:47;100687.09;;;16.37;91.13
74372;BME280;62885;51.374;6.170;2023-09-19T08:01:13;100689.75;;;16.29;90.78
74372;BME280;62885;51.374;6.170;2023-09-19T08:03:39;100684.97;;;16.23;90.09
74372;BME280;62885;51.374;6.170;2023-09-19T08:06:08;100692.13;;;16.32;90.29
74372;BME280;62885;51.374;6.170;2023-09-19T08:08:34;100698.84;;;16.28;90.36
74372;BME280;62885;51.374;6.170;2023-09-19T08:11:04;100697.16;;;16.45;89.92
74372;BME280;62885;51.374;6.170;2023-09-19T08:13:38;100700.31;;;16.40;89.58
74372;BME280;62885;51.374;6.170;2023-09-19T08:16:12;100698.47;;;16.41;89.95
74372;BME280;62885;51.374;6.170;2023-09-19T08:18:38;100699.16;;;16.43;90.28
74372;BME280;62885;51.374;6.170;2023-09-19T08:21:05;100702.69;;;16.43;88.59
74372;BME280;62885;51.374;6.170;2023-09-19T08:23:35;100701.09;;;16.33;89.65
74372;BME280;62885;51.374;6.170;2023-09-19T08:26:01;100702.19;;;16.40;88.20
74372;BME280;62885;51.374;6.170;2023-09-19T08:28:31;100702.31;;;16.56;88.16
74372;BME280;62885;51.374;6.170;2023-09-19T08:31:01;100710.44;;;16.74;87.14
74372;BME280;62885;51.374;6.170;2023-09-19T08:33:27;100709.06;;;16.52;87.39
74372;BME280;62885;51.374;6.170;2023-09-19T08:35:55;100708.91;;;16.54;87.82
74372;BME280;62885;51.374;6.170;2023-09-19T08:38:21;100707.13;;;16.62;87.16
74372;BME280;62885;51.374;6.170;2023-09-19T08:40:46;100701.34;;;16.75;87.38
74372;BME280;62885;51.374;6.170;2023-09-19T08:43:11;100709.69;;;16.81;87.17
74372;BME280;62885;51.374;6.170;2023-09-19T08:45:38;100711.81;;;16.96;86.25
74372;BME280;62885;51.374;6.170;2023-09-19T08:48:24;100704.91;;;17.01;86.00
74372;BME280;62885;51.374;6.170;2023-09-19T08:51:03;100709.47;;;17.01;85.04
74372;BME280;62885;51.374;6.170;2023-09-19T08:56:17;100699.34;;;17.03;85.47
74372;BME280;62885;51.374;6.170;2023-09-19T08:58:55;100706.63;;;17.02;84.33
74372;BME280;62885;51.374;6.170;2023-09-19T09:01:23;100708.19;;;17.13;85.17
74372;BME280;62885;51.374;6.170;2023-09-19T09:03:56;100707.91;;;17.16;84.95
74372;BME280;62885;51.374;6.170;2023-09-19T09:06:23;100706.78;;;17.27;85.74
74372;BME280;62885;51.374;6.170;2023-09-19T09:08:50;100711.06;;;17.37;84.84
74372;BME280;62885;51.374;6.170;2023-09-19T09:11:17;100697.66;;;17.28;83.20
74372;BME280;62885;51.374;6.170;2023-09-19T09:13:44;100697.97;;;17.24;83.21
74372;BME280;62885;51.374;6.170;2023-09-19T09:16:10;100693.69;;;17.40;83.30
74372;BME280;62885;51.374;6.170;2023-09-19T09:18:36;100699.81;;;17.24;83.34
74372;BME280;62885;51.374;6.170;2023-09-19T09:21:01;100692.09;;;17.29;83.75
74372;BME280;62885;51.374;6.170;2023-09-19T09:23:27;100696.38;;;17.40;82.93
74372;BME280;62885;51.374;6.170;2023-09-19T09:25:57;100696.22;;;17.41;82.78
74372;BME280;62885;51.374;6.170;2023-09-19T09:28:26;100692.25;;;17.28;82.31
74372;BME280;62885;51.374;6.170;2023-09-19T09:30:53;100693.03;;;17.20;83.15
74372;BME280;62885;51.374;6.170;2023-09-19T09:33:20;100692.63;;;17.33;81.66
74372;BME280;62885;51.374;6.170;2023-09-19T09:38:19;100694.97;;;17.36;80.94
74372;BME280;62885;51.374;6.170;2023-09-19T09:40:52;100692.66;;;17.41;80.88
74372;BME280;62885;51.374;6.170;2023-09-19T09:43:36;100703.03;;;17.53;81.17
74372;BME280;62885;51.374;6.170;2023-09-19T09:46:21;100702.25;;;17.61;79.92
74372;BME280;62885;51.374;6.170;2023-09-19T09:49:03;100696.53;;;17.64;79.85
74372;BME280;62885;51.374;6.170;2023-09-19T09:52:01;100688.41;;;17.64;79.15
74372;BME280;62885;51.374;6.170;2023-09-19T09:54:31;100695.09;;;17.86;78.99
74372;BME280;62885;51.374;6.170;2023-09-19T09:57:09;100688.53;;;17.96;78.21
74372;BME280;62885;51.374;6.170;2023-09-19T09:59:55;100700.06;;;17.98;75.91
74372;BME280;62885;51.374;6.170;2023-09-19T10:02:27;100691.03;;;17.90;75.72
74372;BME280;62885;51.374;6.170;2023-09-19T10:05:11;100691.75;;;18.00;75.57
74372;BME280;62885;51.374;6.170;2023-09-19T10:07:49;100684.69;;;18.15;75.28
74372;BME280;62885;51.374;6.170;2023-09-19T10:10:36;100698.00;;;18.00;75.24
74372;BME280;62885;51.374;6.170;2023-09-19T10:13:12;100692.78;;;17.99;75.35
74372;BME280;62885;51.374;6.170;2023-09-19T10:15:42;100691.94;;;17.98;75.89
74372;BME280;62885;51.374;6.170;2023-09-19T10:18:14;100700.06;;;18.06;74.81
74372;BME280;62885;51.374;6.170;2023-09-19T10:20:45;100691.78;;;18.08;75.30
74372;BME280;62885;51.374;6.170;2023-09-19T10:23:12;100690.78;;;18.09;74.86
74372;BME280;62885;51.374;6.170;2023-09-19T10:25:41;100682.13;;;18.14;74.93
74372;BME280;62885;51.374;6.170;2023-09-19T10:28:09;100683.16;;;18.29;75.45
74372;BME280;62885;51.374;6.170;2023-09-19T10:30:41;100681.34;;;18.37;74.02
74372;BME280;62885;51.374;6.170;2023-09-19T10:33:11;100667.78;;;18.37;73.92
74372;BME280;62885;51.374;6.170;2023-09-19T10:35:43;100671.69;;;18.43;73.87
74372;BME280;62885;51.374;6.170;2023-09-19T10:38:11;100661.84;;;18.42;74.68
74372;BME280;62885;51.374;6.170;2023-09-19T10:40:38;100672.91;;;18.57;74.10
74372;BME280;62885;51.374;6.170;2023-09-19T10:43:11;100673.09;;;18.55;73.09
74372;BME280;62885;51.374;6.170;2023-09-19T10:45:38;100688.19;;;18.58;73.39
74372;BME280;62885;51.374;6.170;2023-09-19T10:48:05;100683.88;;;18.47;73.62
74372;BME280;62885;51.374;6.170;2023-09-19T10:51:02;100686.78;;;18.45;73.81
74372;BME280;62885;51.374;6.170;2023-09-19T10:56:26;100686.44;;;18.48;73.20
74372;BME280;62885;51.374;6.170;2023-09-19T10:59:08;100681.06;;;18.73;72.83
74372;BME280;62885;51.374;6.170;2023-09-19T11:01:57;100688.69;;;18.69;71.37
74372;BME280;62885;51.374;6.170;2023-09-19T11:04:33;100695.59;;;18.64;69.91
74372;BME280;62885;51.374;6.170;2023-09-19T11:12:08;100696.28;;;19.06;70.60
74372;BME280;62885;51.374;6.170;2023-09-19T11:14:41;100687.28;;;19.06;68.18
74372;BME280;62885;51.374;6.170;2023-09-19T11:30:38;100685.00;;;19.42;67.13
74372;BME280;62885;51.374;6.170;2023-09-19T11:43:46;100651.34;;;19.67;63.45
74372;BME280;62885;51.374;6.170;2023-09-19T11:46:12;100654.22;;;19.74;64.41
74372;BME280;62885;51.374;6.170;2023-09-19T11:48:41;100653.50;;;19.80;63.69
74372;BME280;62885;51.374;6.170;2023-09-19T11:51:14;100655.00;;;19.82;64.21
74372;BME280;62885;51.374;6.170;2023-09-19T11:53:52;100658.34;;;19.92;64.50
74372;BME280;62885;51.374;6.170;2023-09-19T11:56:20;100656.59;;;19.99;63.23
74372;BME280;62885;51.374;6.170;2023-09-19T11:58:46;100648.75;;;20.04;61.23
74372;BME280;62885;51.374;6.170;2023-09-19T12:01:20;100647.88;;;19.81;62.70
74372;BME280;62885;51.374;6.170;2023-09-19T12:03:47;100646.16;;;19.80;62.14
74372;BME280;62885;51.374;6.170;2023-09-19T12:06:18;100632.78;;;19.79;63.14
74372;BME280;62885;51.374;6.170;2023-09-19T12:08:44;100643.97;;;19.84;62.69
74372;BME280;62885;51.374;6.170;2023-09-19T12:11:16;100631.56;;;19.81;62.24
74372;BME280;62885;51.374;6.170;2023-09-19T12:13:45;100631.34;;;19.91;61.65
74372;BME280;62885;51.374;6.170;2023-09-19T12:16:20;100625.69;;;20.00;62.43
74372;BME280;62885;51.374;6.170;2023-09-19T12:18:48;100625.47;;;20.33;62.03
74372;BME280;62885;51.374;6.170;2023-09-19T12:21:26;100626.44;;;20.40;62.05
74372;BME280;62885;51.374;6.170;2023-09-19T12:26:42;100614.06;;;20.37;62.17
74372;BME280;62885;51.374;6.170;2023-09-19T12:29:15;100615.53;;;20.63;61.91
74372;BME280;62885;51.374;6.170;2023-09-19T12:31:53;100618.56;;;20.68;60.51
74372;BME280;62885;51.374;6.170;2023-09-19T12:34:31;100620.34;;;20.75;61.07
74372;BME280;62885;51.374;6.170;2023-09-19T12:37:18;100620.13;;;20.62;58.55
74372;BME280;62885;51.374;6.170;2023-09-19T12:39:51;100618.88;;;20.73;59.42
74372;BME280;62885;51.374;6.170;2023-09-19T12:42:22;100624.59;;;20.78;59.28
74372;BME280;62885;51.374;6.170;2023-09-19T12:44:50;100613.50;;;20.79;58.76
74372;BME280;62885;51.374;6.170;2023-09-19T12:47:21;100610.66;;;20.58;58.90
74372;BME280;62885;51.374;6.170;2023-09-19T12:50:09;100613.84;;;20.62;60.07
74372;BME280;62885;51.374;6.170;2023-09-19T12:52:50;100615.75;;;20.61;59.72
74372;BME280;62885;51.374;6.170;2023-09-19T12:57:58;100622.84;;;20.62;59.32
74372;BME280;62885;51.374;6.170;2023-09-19T13:00:34;100616.25;;;20.42;60.68
74372;BME280;62885;51.374;6.170;2023-09-19T13:03:14;100628.94;;;20.49;62.61
74372;BME280;62885;51.374;6.170;2023-09-19T13:08:25;100627.22;;;20.26;62.52
74372;BME280;62885;51.374;6.170;2023-09-19T13:11:14;100619.22;;;20.32;62.94
74372;BME280;62885;51.374;6.170;2023-09-19T13:17:00;100626.31;;;20.33;63.21
74372;BME280;62885;51.374;6.170;2023-09-19T13:19:48;100638.13;;;20.48;63.27
74372;BME280;62885;51.374;6.170;2023-09-19T13:25:04;100624.84;;;20.23;62.67
74372;BME280;62885;51.374;6.170;2023-09-19T13:27:32;100635.16;;;20.27;62.48
74372;BME280;62885;51.374;6.170;2023-09-19T13:29:58;100628.78;;;20.20;63.45
74372;BME280;62885;51.374;6.170;2023-09-19T13:32:24;100622.72;;;20.10;63.76
74372;BME280;62885;51.374;6.170;2023-09-19T13:34:49;100628.84;;;20.12;64.06
74372;BME280;62885;51.374;6.170;2023-09-19T13:37:16;100629.81;;;20.19;63.74
74372;BME280;62885;51.374;6.170;2023-09-19T13:39:43;100620.81;;;20.19;64.48
74372;BME280;62885;51.374;6.170;2023-09-19T13:42:13;100632.94;;;20.08;63.60
74372;BME280;62885;51.374;6.170;2023-09-19T13:44:38;100632.22;;;20.14;63.75
74372;BME280;62885;51.374;6.170;2023-09-19T13:47:04;100636.75;;;20.22;63.19
74372;BME280;62885;51.374;6.170;2023-09-19T13:49:35;100632.34;;;20.21;63.43
74372;BME280;62885;51.374;6.170;2023-09-19T13:52:00;100621.09;;;20.32;62.89
74372;BME280;62885;51.374;6.170;2023-09-19T13:54:28;100632.81;;;20.32;62.17
74372;BME280;62885;51.374;6.170;2023-09-19T13:56:53;100632.47;;;20.27;62.07
74372;BME280;62885;51.374;6.170;2023-09-19T13:59:19;100624.97;;;20.29;62.70
74372;BME280;62885;51.374;6.170;2023-09-19T14:01:46;100645.59;;;20.46;63.13
74372;BME280;62885;51.374;6.170;2023-09-19T14:04:11;100641.47;;;20.28;62.39
74372;BME280;62885;51.374;6.170;2023-09-19T14:06:37;100630.38;;;20.15;62.70
74372;BME280;62885;51.374;6.170;2023-09-19T14:09:03;100637.59;;;20.22;63.14